Time;durP1;ratioP1;P1;durP2;ratioP2;P2;SDS_P1;SDS_P2;PMS_P1;PMS_P2;Temp;Humidity;BMP_temperature;BMP_pressure;BME280_temperature;BME280_humidity;BME280_pressure;Samples;Min_cycle;Max_cycle;Signal;HPM_P1;HPM_P2
2023/03/21 00:03:53;;;;;;;;;;;;;;;;;;5077433;28;7473;-75
2023/03/21 00:06:38;;;;;;;;;;;;;;;;;;5077520;28;7101;-75
2023/03/21 00:09:04;;;;;;;;;;;;;;;;;;5077523;28;7062;-75
2023/03/21 00:11:29;;;;;;;;;;;;;;;;;;5076863;28;6913;-75
2023/03/21 00:14:04;;;;;;;;;;;;;;;;;;5077484;28;7391;-75
2023/03/21 00:16:30;;;;;;;;;;;;;;;;;;5077580;28;7087;-75
2023/03/21 00:18:56;;;;;;;;;;;;;;;;;;5078032;28;7486;-75
2023/03/21 00:21:27;;;;;;;;;;;;;;;;;;5076891;28;7128;-75
2023/03/21 00:23:54;;;;;;;;;;;;;;;;;;5077356;28;7460;-75
2023/03/21 00:26:21;;;;;;;;;;;;;;;;;;5077189;28;7093;-76
2023/03/21 00:29:17;;;;;;;;;;;;;;;;;;5078222;28;7155;-75
2023/03/21 00:31:42;;;;;;;;;;;;;;;;;;5077899;28;7097;-73
2023/03/21 00:34:08;;;;;;;;;;;;;;;;;;5077061;28;6954;-75
2023/03/21 00:36:37;;;;;;;;;;;;;;;;;;5080942;28;7492;-75
2023/03/21 00:39:14;;;;;;;;;;;;;;;;;;5081778;28;7159;-76
2023/03/21 00:41:40;;;;;;;;;;;;;;;;;;5079422;28;8582;-75
2023/03/21 00:44:06;;;;;;;;;;;;;;;;;;5078619;28;7254;-76
2023/03/21 00:46:50;;;;;;;;;;;;;;;;;;5077347;28;7004;-76
2023/03/21 00:49:16;;;;;;;;;;;;;;;;;;5076561;28;7303;-75
2023/03/21 00:51:42;;;;;;;;;;;;;;;;;;5079968;28;6948;-75
2023/03/21 00:54:12;;;;;;;;;;;;;;;;;;5076580;28;7350;-75
2023/03/21 00:56:39;;;;;;;;;;;;;;;;;;5080748;28;7618;-75
2023/03/21 01:02:07;;;;;;;;;;;;;;;;;;5076356;28;6692;-76
2023/03/21 01:05:09;;;;;;;;;;;;;;;;;;5076482;28;7482;-75
2023/03/21 01:07:57;;;;;;;;;;;;;;;;;;5078997;28;7593;-68
2023/03/21 01:10:25;;;;;;;;;;;;;;;;;;5081084;28;6882;-68
2023/03/21 01:12:51;;;;;;;;;;;;;;;;;;5078087;28;7458;-67
2023/03/21 01:15:17;;;;;;;;;;;;;;;;;;5080043;28;7248;-67
2023/03/21 01:17:44;;;;;;;;;;;;;;;;;;5078954;28;7127;-68
2023/03/21 01:20:10;;;;;;;;;;;;;;;;;;5077638;28;7027;-68
2023/03/21 01:22:36;;;;;;;;;;;;;;;;;;5077604;28;7167;-68
2023/03/21 01:25:02;;;;;;;;;;;;;;;;;;5075709;28;7211;-67
2023/03/21 01:27:27;;;;;;;;;;;;;;;;;;5075944;28;7454;-67
2023/03/21 01:30:14;;;;;;;;;;;;;;;;;;5078844;28;7024;-68
2023/03/21 01:32:40;;;;;;;;;;;;;;;;;;5078889;28;6832;-67
2023/03/21 01:35:06;;;;;;;;;;;;;;;;;;5076362;28;7115;-67
2023/03/21 01:37:32;;;;;;;;;;;;;;;;;;5073537;28;7025;-68
2023/03/21 01:40:04;;;;;;;;;;;;;;;;;;5079670;28;7151;-68
2023/03/21 01:42:30;;;;;;;;;;;;;;;;;;5076215;28;7186;-67
2023/03/21 01:45:24;;;;;;;;;;;;;;;;;;5076404;28;7207;-67
2023/03/21 01:48:13;;;;;;;;;;;;;;;;;;5075271;28;6939;-68
2023/03/21 01:50:42;;;;;;;;;;;;;;;;;;5075408;28;6995;-68
2023/03/21 01:53:08;;;;;;;;;;;;;;;;;;5075790;28;6975;-68
2023/03/21 01:55:44;;;;;;;;;;;;;;;;;;5075543;28;7870;-67
2023/03/21 01:58:11;;;;;;;;;;;;;;;;;;5075541;28;7133;-68
2023/03/21 02:00:40;;;;;;;;;;;;;;;;;;5057653;28;7168;-68
2023/03/21 02:03:10;;;;;;;;;;;;;;;;;;5060405;28;9450;-67
2023/03/21 02:05:54;;;;;;;;;;;;;;;;;;5057769;28;7196;-68
2023/03/21 02:08:22;;;;;;;;;;;;;;;;;;5057164;28;9735;-68
2023/03/21 02:10:50;;;;;;;;;;;;;;;;;;5078228;28;7451;-68
2023/03/21 02:13:51;;;;;;;;;;;;;;;;;;5074373;28;8448;-67
2023/03/21 02:19:39;;;;;;;;;;;;;;;;;;5076607;28;6828;-67
2023/03/21 02:22:09;;;;;;;;;;;;;;;;;;5046870;28;8459;-76
2023/03/21 02:27:53;;;;;;;;;;;;;;;;;;5074856;28;6700;-75
2023/03/21 02:33:34;;;;;;;;;;;;;;;;;;5076564;28;6818;-76
2023/03/21 02:36:00;;;;;;;;;;;;;;;;;;5057146;28;6896;-76
2023/03/21 02:38:27;;;;;;;;;;;;;;;;;;5055444;28;8683;-76
2023/03/21 02:41:05;;;;;;;;;;;;;;;;;;5074469;28;6961;-76
2023/03/21 02:43:48;;;;;;;;;;;;;;;;;;5074394;28;6929;-76
2023/03/21 02:49:24;;;;;;;;;;;;;;;;;;5076528;28;6774;-75
2023/03/21 03:00:58;;;;;;;;;;;;;;;;;;5074428;28;6690;-76
2023/03/21 03:03:29;;;;;;;;;;;;;;;;;;5076148;28;7207;-75
2023/03/21 03:05:57;;;;;;;;;;;;;;;;;;5074965;28;7116;-75
2023/03/21 03:08:35;;;;;;;;;;;;;;;;;;5074508;28;7185;-76
2023/03/21 03:14:15;;;;;;;;;;;;;;;;;;5055266;28;6814;-76
2023/03/21 03:17:01;;;;;;;;;;;;;;;;;;5054307;28;7217;-75
2023/03/21 03:19:31;;;;;;;;;;;;;;;;;;5056297;28;7392;-76
2023/03/21 03:22:09;;;;;;;;;;;;;;;;;;5065929;28;7198;-75
2023/03/21 03:24:57;;;;;;;;;;;;;;;;;;5075436;28;7198;-76
2023/03/21 03:27:33;;;;;;;;;;;;;;;;;;5063265;28;7162;-75
2023/03/21 03:30:02;;;;;;;;;;;;;;;;;;5063282;28;6966;-75
2023/03/21 03:32:35;;;;;;;;;;;;;;;;;;5052808;28;8838;-75
2023/03/21 03:44:30;;;;;;;;;;;;;;;;;;5035328;28;6977;-76
2023/03/21 03:50:11;;;;;;;;;;;;;;;;;;5033965;28;6708;-75
2023/03/21 03:55:37;;;;;;;;;;;;;;;;;;5034805;28;6940;-76
2023/03/21 03:58:03;;;;;;;;;;;;;;;;;;5038402;28;7210;-75
2023/03/21 04:00:32;;;;;;;;;;;;;;;;;;5038096;28;7164;-76
2023/03/21 04:02:58;;;;;;;;;;;;;;;;;;5037685;28;7173;-75
2023/03/21 04:05:25;;;;;;;;;;;;;;;;;;5037763;28;7131;-76
2023/03/21 04:07:57;;;;;;;;;;;;;;;;;;5038763;28;7279;-75
2023/03/21 04:10:23;;;;;;;;;;;;;;;;;;5039755;28;7054;-75
2023/03/21 04:12:49;;;;;;;;;;;;;;;;;;5057362;28;7687;-75
2023/03/21 04:15:31;;;;;;;;;;;;;;;;;;5057802;28;6949;-75
2023/03/21 04:17:57;;;;;;;;;;;;;;;;;;5057803;28;7163;-68
2023/03/21 04:20:23;;;;;;;;;;;;;;;;;;5057582;28;6991;-68
2023/03/21 04:22:50;;;;;;;;;;;;;;;;;;5057317;28;7365;-68
2023/03/21 04:25:15;;;;;;;;;;;;;;;;;;5056976;28;7235;-68
2023/03/21 04:27:41;;;;;;;;;;;;;;;;;;5057129;28;7230;-68
2023/03/21 04:30:15;;;;;;;;;;;;;;;;;;5057045;28;7138;-68
2023/03/21 04:32:41;;;;;;;;;;;;;;;;;;5057171;28;6985;-68
2023/03/21 04:35:09;;;;;;;;;;;;;;;;;;5058421;28;7164;-68
2023/03/21 04:37:35;;;;;;;;;;;;;;;;;;5060475;28;7399;-68
2023/03/21 04:40:05;;;;;;;;;;;;;;;;;;5067717;28;6930;-68
2023/03/21 04:42:32;;;;;;;;;;;;;;;;;;5058912;28;8790;-68
2023/03/21 04:44:58;;;;;;;;;;;;;;;;;;5077174;28;7086;-68
2023/03/21 04:47:38;;;;;;;;;;;;;;;;;;5078547;28;6836;-68
2023/03/21 04:50:04;;;;;;;;;;;;;;;;;;5076527;28;7215;-68
2023/03/21 04:52:30;;;;;;;;;;;;;;;;;;5076577;28;7312;-68
2023/03/21 04:54:56;;;;;;;;;;;;;;;;;;5079024;28;7220;-68
2023/03/21 04:57:23;;;;;;;;;;;;;;;;;;5078303;28;7035;-68
2023/03/21 04:59:49;;;;;;;;;;;;;;;;;;5079456;28;7066;-68
2023/03/21 05:02:16;;;;;;;;;;;;;;;;;;5076450;28;6994;-68
2023/03/21 05:04:42;;;;;;;;;;;;;;;;;;5076829;28;7373;-69
2023/03/21 05:07:09;;;;;;;;;;;;;;;;;;5076590;28;6967;-69
2023/03/21 05:09:36;;;;;;;;;;;;;;;;;;5077156;28;7247;-76
2023/03/21 05:12:02;;;;;;;;;;;;;;;;;;5060542;28;7051;-76
2023/03/21 05:14:30;;;;;;;;;;;;;;;;;;5075000;28;9239;-76
2023/03/21 05:16:56;;;;;;;;;;;;;;;;;;5058211;28;8689;-76
2023/03/21 05:19:33;;;;;;;;;;;;;;;;;;5075277;28;8763;-69
2023/03/21 05:27:52;;;;;;;;;;;;;;;;;;5078854;28;7816;-69
2023/03/21 05:30:22;;;;;;;;;;;;;;;;;;5076864;28;6928;-69
2023/03/21 05:32:51;;;;;;;;;;;;;;;;;;5079960;28;7293;-69
2023/03/21 05:38:25;;;;;;;;;;;;;;;;;;5080194;28;6695;-69
2023/03/21 05:40:50;;;;;;;;;;;;;;;;;;5075739;28;7222;-69
2023/03/21 05:46:19;;;;;;;;;;;;;;;;;;5075534;28;6941;-69
2023/03/21 05:51:48;;;;;;;;;;;;;;;;;;5078605;28;6697;-69
2023/03/21 05:54:15;;;;;;;;;;;;;;;;;;5077940;28;7109;-69
2023/03/21 05:56:41;;;;;;;;;;;;;;;;;;5078026;28;7144;-69
2023/03/21 05:59:19;;;;;;;;;;;;;;;;;;5075173;28;7042;-69
2023/03/21 06:02:06;;;;;;;;;;;;;;;;;;5077961;28;7177;-68
2023/03/21 06:04:32;;;;;;;;;;;;;;;;;;5075703;28;7040;-70
2023/03/21 06:06:59;;;;;;;;;;;;;;;;;;5079363;28;6936;-68
2023/03/21 06:09:44;;;;;;;;;;;;;;;;;;5074019;28;8430;-68
2023/03/21 06:12:10;;;;;;;;;;;;;;;;;;5054875;28;8437;-68
2023/03/21 06:14:40;;;;;;;;;;;;;;;;;;5076343;28;7068;-68
2023/03/21 06:17:06;;;;;;;;;;;;;;;;;;5075814;28;7049;-68
2023/03/21 06:22:34;;;;;;;;;;;;;;;;;;5074996;28;6983;-68
2023/03/21 06:25:01;;;;;;;;;;;;;;;;;;5074879;28;7235;-68
2023/03/21 06:27:28;;;;;;;;;;;;;;;;;;5075363;28;7140;-68
2023/03/21 06:29:56;;;;;;;;;;;;;;;;;;5193395;22;6967;-67
2023/03/21 06:32:23;;;;;;;;;;;;;;;;;;5083859;28;8486;-67
2023/03/21 06:34:52;;;;;;;;;;;;;;;;;;5094926;28;7204;-67
2023/03/21 06:40:23;;;;;;;;;;;;;;;;;;5094847;28;6709;-67
2023/03/21 06:42:49;;;;;;;;;;;;;;;;;;5195797;22;6867;-75
2023/03/21 06:45:16;;;;;;;;;;;;;;;;;;5074321;28;6954;-68
2023/03/21 06:47:44;;;;;;;;;;;;;;;;;;5075517;28;7165;-67
2023/03/21 06:50:10;;;;;;;;;;;;;;;;;;5189103;23;6978;-74
2023/03/21 06:52:37;;;;;;;;;;;;;;;;;;5089362;28;7026;-74
2023/03/21 06:55:10;;;;;;;;;;;;;;;;;;5074578;28;7293;-75
2023/03/21 07:03:10;;;;;;;;;;;;;;;;;;5163089;22;6951;-74
2023/03/21 07:05:52;;;;;;;;;;;;;;;;;;5073372;28;7285;-75
2023/03/21 07:08:18;;;;;;;;;;;;;;;;;;5074469;28;7030;-75
2023/03/21 07:10:47;;;;;;;;;;;;;;;;;;5074564;28;6837;-75
2023/03/21 07:13:13;;;;;;;;;;;;;;;;;;5074502;28;7144;-75
2023/03/21 07:18:44;;;;;;;;;;;;;;;;;;5074573;28;7051;-75
2023/03/21 07:21:10;;;;;;;;;;;;;;;;;;5074440;28;7429;-76
2023/03/21 07:23:37;;;;;;;;;;;;;;;;;;5113277;22;7537;-67
2023/03/21 07:26:06;;;;;;;;;;;;;;;;;;5075297;28;7254;-68
2023/03/21 07:28:32;;;;;;;;;;;;;;;;;;5074350;28;7188;-68
2023/03/21 07:31:01;;;;;;;;;;;;;;;;;;5066909;28;7333;-68
2023/03/21 07:33:46;;;;;;;;;;;;;;;;;;5080604;28;7105;-68
2023/03/21 07:36:14;;;;;;;;;;;;;;;;;;5081349;28;6833;-69
2023/03/21 07:38:40;;;;;;;;;;;;;;;;;;5058264;28;6856;-68
2023/03/21 07:41:18;;;;;;;;;;;;;;;;;;5057861;28;6980;-69
2023/03/21 07:43:44;;;;;;;;;;;;;;;;;;5058608;28;8362;-70
2023/03/21 07:46:10;;;;;;;;;;;;;;;;;;5072608;28;7185;-70
2023/03/21 07:48:52;;;;;;;;;;;;;;;;;;5077643;28;7212;-70
2023/03/21 07:51:18;;;;;;;;;;;;;;;;;;5078035;28;7311;-70
2023/03/21 07:53:47;;;;;;;;;;;;;;;;;;5078255;28;7019;-70
2023/03/21 07:56:25;;;;;;;;;;;;;;;;;;5077831;28;7438;-70
2023/03/21 08:01:54;;;;;;;;;;;;;;;;;;5070286;28;6702;-70
2023/03/21 08:04:21;;;;;;;;;;;;;;;;;;5078180;28;6963;-70
2023/03/21 08:06:49;;;;;;;;;;;;;;;;;;5078054;28;7217;-70
2023/03/21 08:09:19;;;;;;;;;;;;;;;;;;5077723;28;7250;-70
2023/03/21 08:11:45;;;;;;;;;;;;;;;;;;5070198;28;7122;-70
2023/03/21 08:17:08;;;;;;;;;;;;;;;;;;5057530;28;6951;-70
2023/03/21 08:19:34;;;;;;;;;;;;;;;;;;5059164;28;7309;-70
2023/03/21 08:22:01;;;;;;;;;;;;;;;;;;5058430;28;7123;-70
2023/03/21 08:24:27;;;;;;;;;;;;;;;;;;5067948;28;7274;-69
2023/03/21 08:29:55;;;;;;;;;;;;;;;;;;5069907;28;6955;-70
2023/03/21 08:32:37;;;;;;;;;;;;;;;;;;5078734;28;7142;-70
2023/03/21 08:35:04;;;;;;;;;;;;;;;;;;5077413;28;7080;-70
2023/03/21 08:37:30;;;;;;;;;;;;;;;;;;5076615;28;7161;-70
2023/03/21 08:40:07;;;;;;;;;;;;;;;;;;5076910;28;7219;-70
2023/03/21 08:42:33;;;;;;;;;;;;;;;;;;5069850;28;7062;-70
2023/03/21 08:44:59;;;;;;;;;;;;;;;;;;5058937;28;7097;-70
2023/03/21 08:47:24;;;;;;;;;;;;;;;;;;5057190;28;7073;-70
2023/03/21 08:49:50;;;;;;;;;;;;;;;;;;5056771;28;7094;-70
2023/03/21 08:55:19;;;;;;;;;;;;;;;;;;5056461;28;6941;-70
2023/03/21 08:57:45;;;;;;;;;;;;;;;;;;5060053;28;7324;-70
2023/03/21 09:03:14;;;;;;;;;;;;;;;;;;5056220;28;6698;-69
2023/03/21 09:05:40;;;;;;;;;;;;;;;;;;5056328;28;7914;-68
2023/03/21 09:08:12;;;;;;;;;;;;;;;;;;5057206;28;7417;-68
2023/03/21 09:10:38;;;;;;;;;;;;;;;;;;5056168;28;7002;-68
2023/03/21 09:13:04;;;;;;;;;;;;;;;;;;5056285;28;7125;-68
2023/03/21 09:15:40;;;;;;;;;;;;;;;;;;5056330;28;7095;-68
2023/03/21 09:18:14;;;;;;;;;;;;;;;;;;5056808;28;6956;-67
2023/03/21 09:20:43;;;;;;;;;;;;;;;;;;5055509;28;7655;-68
2023/03/21 09:23:12;;;;;;;;;;;;;;;;;;5056560;28;7156;-68
2023/03/21 09:25:39;;;;;;;;;;;;;;;;;;5055462;28;7182;-68
2023/03/21 09:28:07;;;;;;;;;;;;;;;;;;5055956;28;7160;-68
2023/03/21 09:30:34;;;;;;;;;;;;;;;;;;5056078;28;7143;-68
2023/03/21 09:33:05;;;;;;;;;;;;;;;;;;5056641;28;7142;-68
2023/03/21 09:35:42;;;;;;;;;;;;;;;;;;5065646;28;7164;-68
2023/03/21 09:38:07;;;;;;;;;;;;;;;;;;5077480;28;7054;-68
2023/03/21 09:41:18;;;;;;;;;;;;;;;;;;5079209;28;7630;-68
2023/03/21 09:43:54;;;;;;;;;;;;;;;;;;5076406;28;6943;-68
2023/03/21 09:46:31;;;;;;;;;;;;;;;;;;5078897;28;7229;-68
2023/03/21 09:49:09;;;;;;;;;;;;;;;;;;5084970;28;6893;-68
2023/03/21 09:51:45;;;;;;;;;;;;;;;;;;5075543;28;7155;-68
2023/03/21 09:54:18;;;;;;;;;;;;;;;;;;5077655;28;7184;-68
2023/03/21 09:59:49;;;;;;;;;;;;;;;;;;5075221;28;7006;-68
2023/03/21 10:02:34;;;;;;;;;;;;;;;;;;5076233;28;7059;-69
2023/03/21 10:05:05;;;;;;;;;;;;;;;;;;5079630;28;7269;-68
2023/03/21 10:07:38;;;;;;;;;;;;;;;;;;5075770;28;7198;-69
2023/03/21 10:10:05;;;;;;;;;;;;;;;;;;5075926;28;7077;-69
2023/03/21 10:12:30;;;;;;;;;;;;;;;;;;5079928;28;7249;-68
2023/03/21 10:14:59;;;;;;;;;;;;;;;;;;5075901;28;7212;-68
2023/03/21 10:17:41;;;;;;;;;;;;;;;;;;5075084;28;7133;-69
2023/03/21 10:20:09;;;;;;;;;;;;;;;;;;5077118;28;7163;-68
2023/03/21 10:28:47;;;;;;;;;;;;;;;;;;5035471;28;6957;-68
2023/03/21 10:34:35;;;;;;;;;;;;;;;;;;5039078;28;6692;-68
2023/03/21 10:37:03;;;;;;;;;;;;;;;;;;5034483;28;7175;-68
2023/03/21 10:39:49;;;;;;;;;;;;;;;;;;5034933;28;6956;-68
2023/03/21 10:42:23;;;;;;;;;;;;;;;;;;5035815;28;7164;-67
2023/03/21 10:48:07;;;;;;;;;;;;;;;;;;5034654;28;6688;-69
2023/03/21 10:50:34;;;;;;;;;;;;;;;;;;5038415;28;6830;-68
2023/03/21 10:53:29;;;;;;;;;;;;;;;;;;5034646;28;7065;-69
2023/03/21 10:55:57;;;;;;;;;;;;;;;;;;5034410;28;7220;-69
2023/03/21 10:58:29;;;;;;;;;;;;;;;;;;5034799;28;7185;-69
2023/03/21 11:00:57;;;;;;;;;;;;;;;;;;5154978;23;7207;-75
2023/03/21 11:03:28;;;;;;;;;;;;;;;;;;5081962;28;8861;-69
2023/03/21 11:06:12;;;;;;;;;;;;;;;;;;5047793;28;7055;-69
2023/03/21 11:08:43;;;;;;;;;;;;;;;;;;5080836;28;6983;-70
2023/03/21 11:11:44;;;;;;;;;;;;;;;;;;5077003;28;7012;-69
2023/03/21 11:29:52;;;;;;;;;;;;;;;;;;5057442;28;7546;-70
2023/03/21 11:35:23;;;;;;;;;;;;;;;;;;5058088;28;6954;-69
2023/03/21 11:43:57;;;;;;;;;;;;;;;;;;5058142;28;6698;-69
2023/03/21 11:49:30;;;;;;;;;;;;;;;;;;5057613;28;6713;-69
2023/03/21 12:04:26;;;;;;;;;;;;;;;;;;5035591;28;6703;-68
2023/03/21 12:06:56;;;;;;;;;;;;;;;;;;5035474;28;7086;-67
2023/03/21 12:12:45;;;;;;;;;;;;;;;;;;5023427;28;7000;-68
2023/03/21 12:18:25;;;;;;;;;;;;;;;;;;5034670;28;6716;-68
2023/03/21 12:33:15;;;;;;;;;;;;;;;;;;5057454;28;6808;-68
2023/03/21 12:35:56;;;;;;;;;;;;;;;;;;5057018;28;7044;-68
2023/03/21 12:41:42;;;;;;;;;;;;;;;;;;5050482;28;6937;-68
2023/03/21 12:44:16;;;;;;;;;;;;;;;;;;5059077;28;7092;-68
2023/03/21 12:50:20;;;;;;;;;;;;;;;;;;5060885;28;6709;-68
2023/03/21 12:52:52;;;;;;;;;;;;;;;;;;5056801;28;7073;-68
2023/03/21 12:55:27;;;;;;;;;;;;;;;;;;5059126;28;7153;-68
2023/03/21 12:57:55;;;;;;;;;;;;;;;;;;5056325;28;7049;-68
2023/03/21 13:00:34;;;;;;;;;;;;;;;;;;5056334;28;7386;-68
2023/03/21 13:03:09;;;;;;;;;;;;;;;;;;5056198;28;7184;-68
2023/03/21 13:05:57;;;;;;;;;;;;;;;;;;5057568;28;7205;-68
2023/03/21 13:11:18;;;;;;;;;;;;;;;;;;5056433;28;6940;-69
2023/03/21 13:16:35;;;;;;;;;;;;;;;;;;5056108;28;6784;-68
2023/03/21 13:19:30;;;;;;;;;;;;;;;;;;5055614;28;6938;-68
2023/03/21 13:22:15;;;;;;;;;;;;;;;;;;5047691;28;7334;-68
2023/03/21 13:24:48;;;;;;;;;;;;;;;;;;5037337;28;7298;-68
2023/03/21 13:27:47;;;;;;;;;;;;;;;;;;5036223;28;7010;-69
2023/03/21 13:30:13;;;;;;;;;;;;;;;;;;5018290;28;7213;-68
2023/03/21 13:32:39;;;;;;;;;;;;;;;;;;5017140;28;7077;-68
2023/03/21 13:41:46;;;;;;;;;;;;;;;;;;5015942;28;6965;-68
2023/03/21 13:44:14;;;;;;;;;;;;;;;;;;4993839;28;6994;-68
2023/03/21 13:50:18;;;;;;;;;;;;;;;;;;5015570;28;7423;-68
2023/03/21 13:53:05;;;;;;;;;;;;;;;;;;5018086;28;7083;-69
2023/03/21 13:55:36;;;;;;;;;;;;;;;;;;5015564;28;7268;-69
2023/03/21 14:01:22;;;;;;;;;;;;;;;;;;5034191;28;6720;-68
2023/03/21 14:03:48;;;;;;;;;;;;;;;;;;5034975;28;7304;-69
2023/03/21 14:06:16;;;;;;;;;;;;;;;;;;5037350;28;7304;-69
2023/03/21 14:08:49;;;;;;;;;;;;;;;;;;5036013;28;7099;-69
2023/03/21 14:11:18;;;;;;;;;;;;;;;;;;5018036;28;7395;-69
2023/03/21 14:16:20;;;;;;;;;;;;;;;;;;5053406;28;6961;-75
2023/03/21 14:21:52;;;;;;;;;;;;;;;;;;5034691;28;7406;-75
2023/03/21 14:24:52;;;;;;;;;;;;;;;;;;5034721;28;7001;-75
2023/03/21 14:27:18;;;;;;;;;;;;;;;;;;5034883;28;6845;-75
2023/03/21 14:42:02;;;;;;;;;;;;;;;;;;5034156;28;6702;-75
2023/03/21 14:44:34;;;;;;;;;;;;;;;;;;5034695;28;7386;-75
2023/03/21 14:47:04;;;;;;;;;;;;;;;;;;5034931;28;7171;-75
2023/03/21 14:49:32;;;;;;;;;;;;;;;;;;5034822;28;7059;-76
2023/03/21 14:57:39;;;;;;;;;;;;;;;;;;5054914;28;7116;-68
2023/03/21 15:00:11;;;;;;;;;;;;;;;;;;5054360;28;7219;-69
2023/03/21 15:11:49;;;;;;;;;;;;;;;;;;5054641;28;6942;-68
2023/03/21 15:17:19;;;;;;;;;;;;;;;;;;5054238;28;6736;-69
2023/03/21 15:20:08;;;;;;;;;;;;;;;;;;5054119;28;6896;-69
2023/03/21 15:22:38;;;;;;;;;;;;;;;;;;5054308;28;7297;-68
2023/03/21 15:25:07;;;;;;;;;;;;;;;;;;5054229;28;7230;-70
2023/03/21 15:27:39;;;;;;;;;;;;;;;;;;5047064;28;7138;-70
2023/03/21 15:30:05;;;;;;;;;;;;;;;;;;5053641;28;7486;-70
2023/03/21 15:32:46;;;;;;;;;;;;;;;;;;5053960;28;7067;-70
2023/03/21 15:35:19;;;;;;;;;;;;;;;;;;5053211;28;8543;-71
2023/03/21 15:37:58;;;;;;;;;;;;;;;;;;5053330;28;7473;-70
2023/03/21 15:40:29;;;;;;;;;;;;;;;;;;5053859;28;7433;-70
2023/03/21 15:46:20;;;;;;;;;;;;;;;;;;5049236;28;6785;-69
2023/03/21 15:48:46;;;;;;;;;;;;;;;;;;5053611;28;7318;-70
2023/03/21 15:54:19;;;;;;;;;;;;;;;;;;5043816;28;7469;-70
2023/03/21 15:56:44;;;;;;;;;;;;;;;;;;5057606;28;7168;-69
2023/03/21 16:02:16;;;;;;;;;;;;;;;;;;5036994;28;6753;-70
2023/03/21 16:04:59;;;;;;;;;;;;;;;;;;5037423;28;6872;-70
2023/03/21 16:07:25;;;;;;;;;;;;;;;;;;5037301;28;7123;-70
2023/03/21 16:09:56;;;;;;;;;;;;;;;;;;5037284;28;7261;-70
2023/03/21 16:15:26;;;;;;;;;;;;;;;;;;5037269;28;6990;-69
2023/03/21 16:18:13;;;;;;;;;;;;;;;;;;5036875;28;7230;-70
2023/03/21 16:20:41;;;;;;;;;;;;;;;;;;5037341;28;7099;-69
2023/03/21 16:23:10;;;;;;;;;;;;;;;;;;5019028;28;8659;-69
2023/03/21 16:25:35;;;;;;;;;;;;;;;;;;5037364;28;7245;-70
2023/03/21 16:28:15;;;;;;;;;;;;;;;;;;5050939;28;6998;-70
2023/03/21 16:30:41;;;;;;;;;;;;;;;;;;5056487;28;7825;-70
2023/03/21 16:33:20;;;;;;;;;;;;;;;;;;5057101;28;7207;-70
2023/03/21 16:35:46;;;;;;;;;;;;;;;;;;5056636;28;7025;-69
2023/03/21 16:41:15;;;;;;;;;;;;;;;;;;5056771;28;6753;-69
2023/03/21 16:43:56;;;;;;;;;;;;;;;;;;5054548;28;6848;-51
2023/03/21 16:46:23;;;;;;;;;;;;;;;;;;5050309;28;7159;-52
2023/03/21 16:48:56;;;;;;;;;;;;;;;;;;5049423;28;6957;-52
2023/03/21 16:51:29;;;;;;;;;;;;;;;;;;5050971;28;7589;-54
2023/03/21 16:53:56;;;;;;;;;;;;;;;;;;5055688;28;7026;-55
2023/03/21 16:56:43;;;;;;;;;;;;;;;;;;5056427;28;7163;-50
2023/03/21 16:59:11;;;;;;;;;;;;;;;;;;5056426;28;7720;-47
2023/03/21 17:01:38;;;;;;;;;;;;;;;;;;5056326;28;7251;-47
2023/03/21 17:04:04;;;;;;;;;;;;;;;;;;5056847;28;7312;-49
2023/03/21 17:06:30;;;;;;;;;;;;;;;;;;5041992;28;7257;-46
2023/03/21 17:08:57;;;;;;;;;;;;;;;;;;5036551;28;7341;-60
2023/03/21 17:11:24;;;;;;;;;;;;;;;;;;5036295;28;7054;-60
2023/03/21 17:13:51;;;;;;;;;;;;;;;;;;5036461;28;7111;-60
2023/03/21 17:16:20;;;;;;;;;;;;;;;;;;5036812;28;7381;-60
2023/03/21 17:18:50;;;;;;;;;;;;;;;;;;5037042;28;7627;-60
2023/03/21 17:24:01;;;;;;;;;;;;;;;;;;5036242;28;7857;-60
2023/03/21 17:26:29;;;;;;;;;;;;;;;;;;5035948;28;6855;-60
2023/03/21 17:28:56;;;;;;;;;;;;;;;;;;5037482;28;7593;-60
2023/03/21 17:31:23;;;;;;;;;;;;;;;;;;5037806;28;7346;-60
2023/03/21 17:34:08;;;;;;;;;;;;;;;;;;5035863;28;7180;-60
2023/03/21 17:36:35;;;;;;;;;;;;;;;;;;5038231;28;6812;-60
2023/03/21 17:39:03;;;;;;;;;;;;;;;;;;5036422;28;7043;-61
2023/03/21 17:44:31;;;;;;;;;;;;;;;;;;5055365;28;6684;-61
2023/03/21 17:47:13;;;;;;;;;;;;;;;;;;5057820;28;7599;-60
2023/03/21 17:49:40;;;;;;;;;;;;;;;;;;5055594;28;7209;-60
2023/03/21 17:52:17;;;;;;;;;;;;;;;;;;5055399;28;6955;-60
2023/03/21 17:54:43;;;;;;;;;;;;;;;;;;5055763;28;6899;-61
2023/03/21 17:57:10;;;;;;;;;;;;;;;;;;5048019;28;7256;-61
2023/03/21 18:00:13;;;;;;;;;;;;;;;;;;5051819;28;7263;-60
2023/03/21 18:02:39;;;;;;;;;;;;;;;;;;5055413;28;7203;-60
2023/03/21 18:05:23;;;;;;;;;;;;;;;;;;5055333;28;7395;-61
2023/03/21 18:07:50;;;;;;;;;;;;;;;;;;5054824;28;7179;-61
2023/03/21 18:10:22;;;;;;;;;;;;;;;;;;5055315;28;7668;-60
2023/03/21 18:12:51;;;;;;;;;;;;;;;;;;5058122;28;7534;-60
2023/03/21 18:15:52;;;;;;;;;;;;;;;;;;5054808;28;6947;-60
2023/03/21 18:18:18;;;;;;;;;;;;;;;;;;5056513;28;7301;-60
2023/03/21 18:23:46;;;;;;;;;;;;;;;;;;5055756;28;6937;-60
2023/03/21 18:26:15;;;;;;;;;;;;;;;;;;5054581;28;7284;-61
2023/03/21 18:28:59;;;;;;;;;;;;;;;;;;5056139;28;7199;-60
2023/03/21 18:31:25;;;;;;;;;;;;;;;;;;5054666;28;7154;-60
2023/03/21 18:33:51;;;;;;;;;;;;;;;;;;5056798;28;7432;-60
2023/03/21 18:36:18;;;;;;;;;;;;;;;;;;5054841;28;7198;-60
2023/03/21 18:39:05;;;;;;;;;;;;;;;;;;5056501;28;7186;-60
2023/03/21 18:41:40;;;;;;;;;;;;;;;;;;5058583;28;7440;-60
2023/03/21 18:44:05;;;;;;;;;;;;;;;;;;5055578;28;7409;-60
2023/03/21 18:46:31;;;;;;;;;;;;;;;;;;5058291;28;6988;-60
2023/03/21 18:49:06;;;;;;;;;;;;;;;;;;5054825;28;7353;-60
2023/03/21 18:54:35;;;;;;;;;;;;;;;;;;5051000;28;7077;-60
2023/03/21 18:57:02;;;;;;;;;;;;;;;;;;5054630;28;6975;-60
2023/03/21 18:59:29;;;;;;;;;;;;;;;;;;5054709;28;7010;-60
2023/03/21 19:01:55;;;;;;;;;;;;;;;;;;5054721;28;7286;-60
2023/03/21 19:04:20;;;;;;;;;;;;;;;;;;5054232;28;7842;-52
2023/03/21 19:06:57;;;;;;;;;;;;;;;;;;5054253;28;7199;-50
2023/03/21 19:09:23;;;;;;;;;;;;;;;;;;5054535;28;7123;-53
2023/03/21 19:11:48;;;;;;;;;;;;;;;;;;5054453;28;7342;-51
2023/03/21 19:14:21;;;;;;;;;;;;;;;;;;5055848;28;7115;-52
2023/03/21 19:16:46;;;;;;;;;;;;;;;;;;5059951;28;6828;-49
2023/03/21 19:19:12;;;;;;;;;;;;;;;;;;5054543;28;6972;-52
2023/03/21 19:21:38;;;;;;;;;;;;;;;;;;5054349;28;7195;-51
2023/03/21 19:24:04;;;;;;;;;;;;;;;;;;5054331;28;7212;-47
2023/03/21 19:26:30;;;;;;;;;;;;;;;;;;5054165;28;7189;-50
2023/03/21 19:28:56;;;;;;;;;;;;;;;;;;5058073;28;7235;-51
2023/03/21 19:31:23;;;;;;;;;;;;;;;;;;5058350;28;7166;-53
2023/03/21 19:34:13;;;;;;;;;;;;;;;;;;5058325;28;6911;-50
2023/03/21 19:36:41;;;;;;;;;;;;;;;;;;5060620;28;7219;-48
2023/03/21 19:39:07;;;;;;;;;;;;;;;;;;5057928;28;7501;-47
2023/03/21 19:41:33;;;;;;;;;;;;;;;;;;5060578;28;7162;-51
2023/03/21 19:44:06;;;;;;;;;;;;;;;;;;5059636;28;6928;-53
2023/03/21 19:46:32;;;;;;;;;;;;;;;;;;5059584;28;7189;-46
2023/03/21 19:49:05;;;;;;;;;;;;;;;;;;5057944;28;7101;-46
2023/03/21 19:51:31;;;;;;;;;;;;;;;;;;5058008;28;7617;-47
2023/03/21 19:54:03;;;;;;;;;;;;;;;;;;5055406;28;7018;-46
2023/03/21 19:56:30;;;;;;;;;;;;;;;;;;5057883;28;7277;-48
2023/03/21 19:58:56;;;;;;;;;;;;;;;;;;5057477;28;7035;-47
2023/03/21 20:01:53;;;;;;;;;;;;;;;;;;5057611;28;7176;-51
2023/03/21 20:04:19;;;;;;;;;;;;;;;;;;5061161;28;7179;-46
2023/03/21 20:06:56;;;;;;;;;;;;;;;;;;5058361;28;7214;-47
2023/03/21 20:12:26;;;;;;;;;;;;;;;;;;5062354;28;6676;-51
2023/03/21 20:14:51;;;;;;;;;;;;;;;;;;5057874;28;7371;-52
2023/03/21 20:17:21;;;;;;;;;;;;;;;;;;5056755;28;7265;-51
2023/03/21 20:19:47;;;;;;;;;;;;;;;;;;5057442;28;7224;-46
2023/03/21 20:22:14;;;;;;;;;;;;;;;;;;5056945;28;7023;-49
2023/03/21 20:24:42;;;;;;;;;;;;;;;;;;5057255;28;6995;-46
2023/03/21 20:27:26;;;;;;;;;;;;;;;;;;5057130;28;7277;-50
2023/03/21 20:29:52;;;;;;;;;;;;;;;;;;5056606;28;7226;-48
2023/03/21 20:32:53;;;;;;;;;;;;;;;;;;5057209;28;7027;-48
2023/03/21 20:35:19;;;;;;;;;;;;;;;;;;5057310;28;7084;-51
2023/03/21 20:37:55;;;;;;;;;;;;;;;;;;5056704;28;6937;-50
2023/03/21 20:40:21;;;;;;;;;;;;;;;;;;5056818;28;7297;-47
2023/03/21 20:43:00;;;;;;;;;;;;;;;;;;5057025;28;7311;-48
2023/03/21 20:45:26;;;;;;;;;;;;;;;;;;5056718;28;7055;-49
2023/03/21 20:47:52;;;;;;;;;;;;;;;;;;5057979;28;7390;-50
2023/03/21 20:50:19;;;;;;;;;;;;;;;;;;5059883;28;7202;-51
2023/03/21 20:53:08;;;;;;;;;;;;;;;;;;5056618;28;7226;-48
2023/03/21 20:55:35;;;;;;;;;;;;;;;;;;5056183;28;7155;-48
2023/03/21 20:58:12;;;;;;;;;;;;;;;;;;5056689;28;6978;-51
2023/03/21 21:00:38;;;;;;;;;;;;;;;;;;5056672;28;7458;-47
2023/03/21 21:03:19;;;;;;;;;;;;;;;;;;5056238;28;7199;-51
2023/03/21 21:05:46;;;;;;;;;;;;;;;;;;5053346;28;7228;-49
2023/03/21 21:11:38;;;;;;;;;;;;;;;;;;5042161;28;6744;-49
2023/03/21 21:14:03;;;;;;;;;;;;;;;;;;5056418;28;7068;-47
2023/03/21 21:16:31;;;;;;;;;;;;;;;;;;5056282;28;7160;-48
2023/03/21 21:18:58;;;;;;;;;;;;;;;;;;5057227;28;7200;-48
2023/03/21 21:21:26;;;;;;;;;;;;;;;;;;5056071;28;7394;-52
2023/03/21 21:23:52;;;;;;;;;;;;;;;;;;5056212;28;6989;-50
2023/03/21 21:26:18;;;;;;;;;;;;;;;;;;5056031;28;7030;-49
2023/03/21 21:28:46;;;;;;;;;;;;;;;;;;5055671;28;7218;-46
2023/03/21 21:31:17;;;;;;;;;;;;;;;;;;5055772;28;7027;-49
2023/03/21 21:33:44;;;;;;;;;;;;;;;;;;5059213;28;7390;-49
2023/03/21 21:36:12;;;;;;;;;;;;;;;;;;5056027;28;7205;-47
2023/03/21 21:38:41;;;;;;;;;;;;;;;;;;5057976;28;7836;-47
2023/03/21 21:41:14;;;;;;;;;;;;;;;;;;5055862;28;7605;-60
2023/03/21 21:43:40;;;;;;;;;;;;;;;;;;5055496;28;7064;-60
2023/03/21 21:46:12;;;;;;;;;;;;;;;;;;5055468;28;7011;-60
2023/03/21 21:48:39;;;;;;;;;;;;;;;;;;5055583;28;7047;-60
2023/03/21 21:51:05;;;;;;;;;;;;;;;;;;5055917;28;7120;-60